Tampa, Florida
Traffic Map
Current Weather Conditions
Tampa, Florida
Broken Clouds
Broken Clouds
11°
Feels Like: 11°
Wind Chill: 11° Ceiling: 25000
Heat Index: 11° Visibility: 10mi
Dew Point: Wind: 3mph
Humidity: 80% Direction: 50° (NE)
Pressure: 30.12in Gusts: 0mph
Raw Report DataKTPA 191153Z 05003KT 10SM FEW200 BKN250 11/08 A3012 RMK AO2 SLP200 T01110078 10122 20106 53002
Traffic Incident Summary
Active as of:
Severity:
Category:
InformationThere was an issue retrieving the traffic information for this location. Please try a different location or try again shortly.
Advertisements
Track Severe Weather on mobile